createdAt,value
2023-01-13T09:39:38.123Z,100156.81
2023-01-13T09:42:10.818Z,100156.81
2023-01-13T09:44:48.649Z,99215.19
2023-01-13T09:46:56.485Z,99051.03
2023-01-13T09:49:00.241Z,99049.63
2023-01-13T09:51:14.520Z,99057.09
2023-01-13T09:53:41.449Z,99094.87
2023-01-13T09:55:45.391Z,99142.22
2023-01-13T09:57:47.750Z,99198.78
2023-01-13T09:59:50.782Z,99226.81
2023-01-13T10:02:03.673Z,99262.13
2023-01-13T10:04:15.180Z,99260.22
2023-01-13T10:06:17.553Z,99262.44
2023-01-13T10:08:26.012Z,99265.09
2023-01-13T10:10:43.491Z,99251.09
2023-01-13T10:13:06.305Z,99247.06
2023-01-13T10:15:23.120Z,99260.31
2023-01-13T10:17:56.531Z,99273.44
2023-01-13T10:20:16.926Z,99284.97
2023-01-13T10:22:31.376Z,99257.22
2023-01-13T10:24:50.236Z,99248.88
2023-01-13T10:27:18.814Z,99260.34
2023-01-13T10:29:27.615Z,99259.63
2023-01-13T10:31:30.237Z,99280.06
2023-01-13T10:33:32.647Z,99306.72
2023-01-13T10:36:09.038Z,99328.09
2023-01-13T10:38:47.260Z,99336.38
2023-01-13T10:40:53.292Z,99353.94
2023-01-13T10:43:06.575Z,99368.66
2023-01-13T10:45:24.396Z,99388.50
2023-01-13T10:47:35.956Z,99420.47
2023-01-13T10:49:39.099Z,99413.50
2023-01-13T10:51:44.813Z,99419.78
2023-01-13T10:53:51.931Z,99447.09
2023-01-13T10:56:05.151Z,99481.56
2023-01-13T10:58:19.617Z,99500.91
2023-01-13T11:00:35.088Z,99471.22
2023-01-13T11:02:38.773Z,99481.66
2023-01-13T11:05:00.794Z,99492.97
2023-01-13T11:07:06.261Z,99497.06
2023-01-13T11:09:20.280Z,99510.16
2023-01-13T11:11:38.762Z,99499.66
2023-01-13T11:14:03.927Z,99492.09
2023-01-13T11:16:18.149Z,99451.63
2023-01-13T11:19:02.229Z,99461.69
2023-01-13T11:21:17.493Z,99458.94
2023-01-13T11:23:49.004Z,99418.34
2023-01-13T11:25:56.962Z,99390.06
2023-01-13T11:28:28.066Z,99373.75
2023-01-13T11:31:09.324Z,99396.25
2023-01-13T11:33:15.261Z,99393.69
2023-01-13T11:35:20.668Z,99405.19
2023-01-13T11:37:30.698Z,99432.66
2023-01-13T11:39:47.732Z,99417.62
2023-01-13T11:42:16.377Z,99403.78
2023-01-13T11:44:31.735Z,99406.69
2023-01-13T11:46:34.502Z,99396.84
2023-01-13T11:48:41.335Z,99407.13
2023-01-13T11:50:58.721Z,99400.56
2023-01-13T11:53:12.304Z,99392.28
2023-01-13T11:55:17.324Z,99375.41
2023-01-13T11:57:38.812Z,99362.03
2023-01-13T12:00:03.218Z,99340.34
2023-01-13T12:02:52.326Z,99338.53
2023-01-13T12:05:19.185Z,99347.53
2023-01-13T12:07:44.608Z,99343.47
2023-01-13T12:10:03.718Z,99381.59
2023-01-13T12:12:44.279Z,99379.56
2023-01-13T12:15:08.408Z,99349.84
2023-01-13T12:17:26.333Z,99340.09
2023-01-13T12:19:32.487Z,99314.50
2023-01-13T12:21:41.047Z,99305.59
2023-01-13T12:24:06.555Z,99295.13
2023-01-13T12:26:16.591Z,99316.25
2023-01-13T12:28:51.308Z,99313.00
2023-01-13T12:31:01.336Z,99305.19
2023-01-13T12:33:19.364Z,99278.22
2023-01-13T12:35:41.720Z,99267.16
2023-01-13T12:38:07.930Z,99246.34
2023-01-13T12:40:16.728Z,99243.94
2023-01-13T12:42:50.972Z,99256.84
2023-01-13T12:45:12.311Z,99280.75
2023-01-13T12:47:32.841Z,99265.31
2023-01-13T12:49:36.349Z,99252.66
2023-01-13T12:52:07.380Z,99219.12
2023-01-13T12:54:37.597Z,99224.16
2023-01-13T12:56:46.368Z,99218.56
2023-01-13T12:58:48.756Z,99240.97
2023-01-13T13:00:58.374Z,99270.31
2023-01-13T13:03:13.973Z,99283.97
2023-01-13T13:05:25.425Z,99289.84
2023-01-13T13:07:30.884Z,99315.09
2023-01-13T13:09:44.921Z,99322.87
2023-01-13T13:11:58.129Z,99345.66
2023-01-13T13:14:02.108Z,99368.47
2023-01-13T13:16:29.463Z,99361.44
2023-01-13T13:18:31.876Z,99333.91
2023-01-13T13:20:56.407Z,99309.53
2023-01-13T13:22:59.126Z,99300.31
2023-01-13T13:25:04.452Z,99310.47
2023-01-13T13:27:46.940Z,99319.50
2023-01-13T13:30:00.216Z,99329.84
2023-01-13T13:32:24.148Z,99328.53
2023-01-13T13:34:51.652Z,99338.81
2023-01-13T13:37:06.564Z,99353.50
2023-01-13T13:39:27.383Z,99350.59
2023-01-13T13:41:48.975Z,99351.47
2023-01-13T13:44:10.324Z,99354.44
2023-01-13T13:46:47.414Z,99339.81
2023-01-13T13:48:55.360Z,99355.13
2023-01-13T13:51:04.040Z,99365.00
2023-01-13T13:53:08.658Z,99367.78
2023-01-13T13:55:19.870Z,99411.19
2023-01-13T13:57:50.006Z,99427.88
2023-01-13T13:59:58.662Z,99437.94
2023-01-13T14:02:03.965Z,99434.38
2023-01-13T14:04:12.387Z,99410.50
2023-01-13T14:06:23.693Z,99389.34
2023-01-13T14:08:28.514Z,99380.47
2023-01-13T14:10:35.254Z,99372.69
2023-01-13T14:12:38.671Z,99352.84
2023-01-13T14:14:44.669Z,99358.44
2023-01-13T14:16:48.582Z,99345.84
2023-01-13T14:18:51.079Z,99309.75
2023-01-13T14:21:19.612Z,99302.03
2023-01-13T14:23:30.666Z,99293.97
2023-01-13T14:25:39.675Z,99301.69
2023-01-13T14:27:43.470Z,99281.03
2023-01-13T14:29:46.300Z,99269.06
2023-01-13T14:31:53.746Z,99248.16
2023-01-13T14:33:58.790Z,99245.91
2023-01-13T14:36:05.495Z,99262.75
2023-01-13T14:38:16.510Z,99263.56
2023-01-13T14:40:44.635Z,99282.53
2023-01-13T14:42:57.121Z,99287.09
2023-01-13T14:44:59.600Z,99277.69
2023-01-13T14:47:19.824Z,99279.78
2023-01-13T14:49:36.094Z,99272.78
2023-01-13T14:51:38.454Z,99253.03
2023-01-13T14:53:46.284Z,99220.25
2023-01-13T14:55:50.233Z,99215.56
2023-01-13T14:57:52.807Z,99190.84
2023-01-13T14:59:56.219Z,99175.72
2023-01-13T15:02:00.188Z,99172.63
2023-01-13T15:04:41.307Z,99168.91
2023-01-13T15:06:48.166Z,99162.03
2023-01-13T15:08:50.908Z,99187.31
2023-01-13T15:11:01.849Z,99181.19
2023-01-13T15:13:07.519Z,99186.81
2023-01-13T15:15:27.612Z,99171.97
2023-01-13T15:17:29.955Z,99178.22
2023-01-13T15:19:32.261Z,99176.84
2023-01-13T15:21:34.859Z,99159.34
2023-01-13T15:23:39.910Z,99158.28
2023-01-13T15:25:43.310Z,99132.25
2023-01-13T15:27:50.263Z,99118.13
2023-01-13T15:29:52.558Z,99102.31
2023-01-13T15:31:54.879Z,99079.59
2023-01-13T15:33:58.923Z,99068.69
2023-01-13T15:36:02.005Z,99061.53
2023-01-13T15:38:10.516Z,99056.91
2023-01-13T15:40:18.075Z,99054.91
2023-01-13T15:42:49.599Z,99039.75
2023-01-13T15:45:10.511Z,99020.97
2023-01-13T15:47:14.638Z,99021.66
2023-01-13T15:49:38.491Z,99018.31
2023-01-13T15:51:40.991Z,99019.91
2023-01-13T15:53:43.659Z,98997.53
2023-01-13T15:55:50.952Z,99003.13
2023-01-13T15:57:53.451Z,99026.16
2023-01-13T15:59:58.899Z,99017.78
2023-01-13T16:02:01.243Z,98998.81
2023-01-13T16:04:04.172Z,99008.38
2023-01-13T16:06:18.074Z,99026.59
2023-01-13T16:08:22.968Z,99031.03
2023-01-13T16:10:28.028Z,99033.84
2023-01-13T16:12:31.520Z,99042.75
2023-01-13T16:14:33.790Z,99036.22
2023-01-13T16:16:37.370Z,99035.22
2023-01-13T16:18:39.742Z,99032.16
2023-01-13T16:20:42.506Z,99055.47
2023-01-13T16:22:45.485Z,99048.47
2023-01-13T16:24:48.430Z,99041.53
2023-01-13T16:26:50.924Z,99045.12
2023-01-13T16:28:55.996Z,99047.63
2023-01-13T16:30:58.406Z,99040.97
2023-01-13T16:33:01.263Z,99028.38
2023-01-13T16:35:04.064Z,99039.00
2023-01-13T16:37:24.823Z,99030.28
2023-01-13T16:39:27.942Z,99034.97
2023-01-13T16:41:30.731Z,99035.97
2023-01-13T16:43:33.861Z,99037.47
2023-01-13T16:45:36.267Z,99037.19
2023-01-13T16:47:39.851Z,99046.50
2023-01-13T16:49:42.545Z,99034.28
2023-01-13T16:51:44.935Z,99042.13
2023-01-13T16:53:48.048Z,99049.66
2023-01-13T16:55:50.433Z,99050.94
2023-01-13T16:57:52.763Z,99050.34
2023-01-13T16:59:55.635Z,99062.84
2023-01-13T17:01:58.040Z,99068.47
2023-01-13T17:04:01.242Z,99076.09
2023-01-13T17:06:04.243Z,99070.84
2023-01-13T17:08:06.808Z,99088.66
2023-01-13T17:10:17.723Z,99086.06
2023-01-13T17:12:20.774Z,99104.28
2023-01-13T17:14:23.740Z,99108.22
2023-01-13T17:16:27.028Z,99090.34
2023-01-13T17:18:29.949Z,99082.03
2023-01-13T17:20:32.456Z,99071.37
2023-01-13T17:22:35.008Z,99080.97
2023-01-13T17:24:37.694Z,99083.25
2023-01-13T17:26:47.961Z,99084.25
2023-01-13T17:28:50.467Z,99096.50
2023-01-13T17:30:54.389Z,99094.53
2023-01-13T17:32:56.913Z,99102.13
2023-01-13T17:35:01.664Z,99101.16
2023-01-13T17:37:04.733Z,99118.59
2023-01-13T17:39:07.801Z,99146.75
2023-01-13T17:41:10.309Z,99151.88
2023-01-13T17:43:13.932Z,99156.28
2023-01-13T17:45:16.852Z,99175.63
2023-01-13T17:47:19.344Z,99191.91
2023-01-13T17:49:24.043Z,99190.91
2023-01-13T17:51:26.732Z,99187.94
2023-01-13T17:53:30.734Z,99164.47
2023-01-13T17:55:33.432Z,99158.09
2023-01-13T17:57:36.053Z,99142.25
2023-01-13T17:59:38.580Z,99144.03
2023-01-13T18:01:41.727Z,99143.72
2023-01-13T18:03:45.187Z,99163.22
2023-01-13T18:05:50.221Z,99179.03
2023-01-13T18:07:53.068Z,99174.41
2023-01-13T18:09:55.916Z,99172.50
2023-01-13T18:12:00.061Z,99178.09
2023-01-13T18:14:03.946Z,99182.28
2023-01-13T18:16:10.808Z,99200.03
2023-01-13T18:18:14.254Z,99208.84
2023-01-13T18:20:37.569Z,99209.37
2023-01-13T18:23:01.293Z,99214.13
2023-01-13T18:25:22.804Z,99214.25
2023-01-13T18:27:37.082Z,99240.09
2023-01-13T18:29:39.920Z,99249.50
2023-01-13T18:31:42.492Z,99259.28
2023-01-13T18:33:45.599Z,99237.72
2023-01-13T18:35:48.726Z,99226.84
2023-01-13T18:37:53.429Z,99222.34
2023-01-13T18:39:55.993Z,99226.25
2023-01-13T18:42:17.213Z,99238.97
2023-01-13T18:44:20.031Z,99267.44
2023-01-13T18:46:22.962Z,99250.69
2023-01-13T18:48:26.507Z,99256.00
2023-01-13T18:50:30.108Z,99237.28
2023-01-13T18:52:32.808Z,99253.06
2023-01-13T18:54:36.088Z,99252.63
2023-01-13T18:56:39.140Z,99264.53
2023-01-13T18:58:53.228Z,99283.69
2023-01-13T19:01:03.969Z,99279.53
2023-01-13T19:05:14.539Z,99297.25
2023-01-13T19:07:23.445Z,99298.50
2023-01-13T19:09:27.233Z,99303.53
2023-01-13T19:11:34.064Z,99322.44
2023-01-13T19:13:36.996Z,99312.88
2023-01-13T19:15:39.618Z,99307.81
2023-01-13T19:17:42.700Z,99308.09
2023-01-13T19:19:49.366Z,99303.97
2023-01-13T19:21:52.499Z,99310.47
2023-01-13T19:23:56.620Z,99323.13
2023-01-13T19:26:06.560Z,99334.88
2023-01-13T19:28:09.386Z,99351.28
2023-01-13T19:30:12.734Z,99355.78
2023-01-13T19:32:16.389Z,99369.72
2023-01-13T19:34:20.252Z,99372.38
2023-01-13T19:36:23.213Z,99371.53
2023-01-13T19:38:29.171Z,99384.09
2023-01-13T19:40:32.424Z,99387.16
2023-01-13T19:42:57.324Z,99369.00
2023-01-13T19:45:18.997Z,99373.31
2023-01-13T19:47:22.636Z,99377.47
2023-01-13T19:49:25.226Z,99391.28
2023-01-13T19:51:29.480Z,99400.03
2023-01-13T19:53:33.335Z,99404.47
2023-01-13T19:55:36.437Z,99398.53
2023-01-13T19:57:40.724Z,99407.44
2023-01-13T19:59:43.842Z,99389.81
2023-01-13T20:01:46.330Z,99380.69
2023-01-13T20:03:50.725Z,99365.09
2023-01-13T20:05:54.889Z,99357.72
2023-01-13T20:07:57.761Z,99353.72
2023-01-13T20:10:02.299Z,99340.66
2023-01-13T20:12:15.374Z,99328.75
2023-01-13T20:14:19.321Z,99294.47
2023-01-13T20:16:24.251Z,99273.41
2023-01-13T20:18:26.931Z,99269.56
2023-01-13T20:20:30.323Z,99263.38
2023-01-13T20:22:34.302Z,99249.81
2023-01-13T20:24:39.667Z,99245.56
2023-01-13T20:26:42.811Z,99226.69
2023-01-13T20:28:47.366Z,99232.19
2023-01-13T20:30:51.154Z,99248.94
2023-01-13T20:32:55.481Z,99240.63
2023-01-13T20:34:58.932Z,99228.50
2023-01-13T20:37:01.582Z,99213.28
2023-01-13T20:39:06.207Z,99213.59
2023-01-13T20:41:28.063Z,99207.81
2023-01-13T20:43:33.456Z,99211.84
2023-01-13T20:45:35.965Z,99218.19
2023-01-13T20:47:38.848Z,99213.44
2023-01-13T20:49:42.142Z,99209.16
2023-01-13T20:51:46.625Z,99224.19
2023-01-13T20:53:50.309Z,99220.34
2023-01-13T20:55:53.326Z,99205.34
2023-01-13T20:57:55.828Z,99207.66
2023-01-13T20:59:58.953Z,99217.25
2023-01-13T21:02:02.521Z,99210.53
2023-01-13T21:04:07.228Z,99216.78
2023-01-13T21:06:11.030Z,99212.22
2023-01-13T21:08:13.535Z,99229.56
2023-01-13T21:10:16.213Z,99205.97
2023-01-13T21:12:37.608Z,99205.25
2023-01-13T21:14:58.905Z,99194.69
2023-01-13T21:17:01.780Z,99184.72
2023-01-13T21:19:07.446Z,99176.19
2023-01-13T21:21:13.246Z,99159.41
2023-01-13T21:23:16.322Z,99125.50
2023-01-13T21:25:20.034Z,99105.94
2023-01-13T21:27:22.647Z,99084.84
2023-01-13T21:29:25.228Z,99068.78
2023-01-13T21:31:28.163Z,99046.63
2023-01-13T21:33:30.845Z,99051.50
2023-01-13T21:35:33.809Z,99017.63
2023-01-13T21:37:37.936Z,99033.75
2023-01-13T21:39:40.284Z,99031.00
2023-01-13T21:42:01.163Z,99026.56
2023-01-13T21:44:22.504Z,99026.84
2023-01-13T21:46:51.244Z,99029.06
2023-01-13T21:48:53.564Z,99026.37
2023-01-13T21:51:00.296Z,99037.34
2023-01-13T21:53:02.728Z,99042.72
2023-01-13T21:55:20.309Z,99031.44
2023-01-13T21:57:23.342Z,99017.16
2023-01-13T21:59:25.673Z,98996.13
2023-01-13T22:01:28.063Z,99005.16
2023-01-13T22:03:50.833Z,98975.50
2023-01-13T22:05:55.651Z,98967.06
2023-01-13T22:07:58.391Z,98950.91
2023-01-13T22:10:01.350Z,98953.41
2023-01-13T22:12:03.867Z,98949.34
2023-01-13T22:14:07.080Z,98953.22
2023-01-13T22:16:09.783Z,98962.13
2023-01-13T22:18:12.194Z,98975.31
2023-01-13T22:20:14.920Z,98979.03
2023-01-13T22:22:18.939Z,99003.81
2023-01-13T22:24:21.347Z,99008.03
2023-01-13T22:26:23.820Z,99025.31
2023-01-13T22:28:34.113Z,99036.50
2023-01-13T22:30:36.557Z,99031.25
2023-01-13T22:32:38.943Z,99011.22
2023-01-13T22:34:41.653Z,98993.03
2023-01-13T22:36:43.958Z,99000.94
2023-01-13T22:38:46.431Z,99030.63
2023-01-13T22:40:59.331Z,99018.37
2023-01-13T22:43:01.711Z,99005.28
2023-01-13T22:45:05.787Z,99020.38
2023-01-13T22:47:09.818Z,99029.50
2023-01-13T22:49:13.428Z,99016.41
2023-01-13T22:51:16.978Z,99017.78
2023-01-13T22:53:20.618Z,99009.31
2023-01-13T22:55:23.089Z,98999.25
2023-01-13T22:57:25.361Z,98988.59
2023-01-13T22:59:28.030Z,98988.00
2023-01-13T23:01:33.974Z,98973.28
2023-01-13T23:03:36.612Z,98954.16
2023-01-13T23:05:40.663Z,98965.78
2023-01-13T23:07:43.125Z,98976.06
2023-01-13T23:09:45.539Z,98969.16
